Colmslie — VJN3166 — position and weather

sailwx.info

Track history (hours):
 
Tides and Currents Weather Stations Pressure Air Temp Water Temp Dewpoint Dewpoint Depression Visibility Wind Speed Wind Dir Waves Ship Positions

Colmslie

Last reported at 2017-Nov-18 21:25 UTC. Time now 2017-Nov-18 21:52 UTC.
Position S 27°22' E 153°10'.

Length 22 m; draft 5.4 m.

Type: Tug. MMSI: 503194500.

Date/timePositionNaut miles runAvg speedWind from/ knotsBaromVisibWave heightAir tempDewpointWater temp
2017-Nov-18 21:25S 27°22' E 153°10'1 1.8
2017-Nov-18 20:56S 27°23' E 153°09'0 0.2
2017-Nov-18 19:02S 27°23' E 153°10'0 0.0
2017-Nov-18 18:49S 27°23' E 153°10'0 0.9
2017-Nov-18 18:30S 27°23' E 153°10'1 2.1
2017-Nov-18 18:00S 27°22' E 153°11'0 0.0
2017-Nov-18 16:34S 27°22' E 153°11'0 0.0
2017-Nov-18 16:28S 27°22' E 153°11'0 0.0
2017-Nov-18 15:49S 27°22' E 153°11'0 0.0
2017-Nov-18 15:29S 27°22' E 153°11'0 0.9
2017-Nov-18 15:00S 27°22' E 153°10'0 0.2
2017-Nov-18 14:19S 27°22' E 153°10'1 3.0
2017-Nov-18 14:00S 27°23' E 153°10'0 0.0
2017-Nov-18 13:30S 27°23' E 153°10'2 3.0
2017-Nov-18 12:56S 27°22' E 153°11'2 4.8
2017-Nov-18 12:30S 27°23' E 153°09'0 0.0
2017-Nov-18 07:08S 27°24' E 153°09'1 6.7
2017-Nov-18 06:59S 27°24' E 153°09'2 0.1
2017-Nov-17 18:48S 27°23' E 153°10'0 0.0
2017-Nov-17 18:27S 27°23' E 153°10'1 0.2
2017-Nov-17 14:20S 27°22' E 153°10'0 0.6
2017-Nov-17 14:00S 27°22' E 153°10'2 0.1
2017-Nov-16 15:02S 27°24' E 153°09'0 4.6
2017-Nov-16 15:00S 27°24' E 153°09'0 0.0
2017-Nov-16 11:14S 27°24' E 153°09'3 6.5
2017-Nov-16 10:50S 27°26' E 153°07'1 1.3
2017-Nov-16 09:45S 27°27' E 153°06'  
2017-Nov-12 13:55S 27°23' E 153°09'1 0.0
2017-Nov-11 20:14S 27°23' E 153°10'0 1.4
2017-Nov-11 19:56S 27°22' E 153°10'0 0.2
2017-Nov-11 18:43S 27°22' E 153°10'0 0.0
2017-Nov-11 18:22S 27°22' E 153°10'1 1.7
2017-Nov-11 18:00S 27°23' E 153°10'0 0.0
2017-Nov-11 16:51S 27°23' E 153°10'1 3.3
2017-Nov-11 16:30S 27°22' E 153°10'0 0.4
2017-Nov-11 15:58S 27°22' E 153°11'0 0.0
2017-Nov-11 15:27S 27°22' E 153°11'0 0.0
2017-Nov-11 15:00S 27°22' E 153°11'0 0.0
2017-Nov-11 14:30S 27°22' E 153°11'1 2.3
2017-Nov-11 14:00S 27°23' E 153°10'1 0.2
2017-Nov-11 10:58S 27°22' E 153°10'1 0.3
2017-Nov-11 07:25S 27°23' E 153°09'2 0.1
2017-Nov-10 18:16S 27°22' E 153°11'1 1.9
2017-Nov-10 17:55S 27°22' E 153°10'0 0.0
2017-Nov-10 17:30S 27°22' E 153°10'1 1.1
2017-Nov-10 16:59S 27°23' E 153°10'1 1.4
2017-Nov-10 16:30S 27°22' E 153°10'0 0.3
2017-Nov-10 15:53S 27°22' E 153°10'0 0.0
2017-Nov-10 15:29S 27°22' E 153°10'0 0.0
2017-Nov-10 15:00S 27°22' E 153°10'2 4.7
2017-Nov-10 14:30S 27°24' E 153°09'0 0.1
2017-Nov-10 13:46S 27°24' E 153°09'2 1.6
2017-Nov-10 12:32S 27°23' E 153°10'0 0.2
2017-Nov-10 12:29S 27°23' E 153°10'0 0.4
2017-Nov-10 11:48S 27°23' E 153°10'0 0.9
2017-Nov-10 11:28S 27°23' E 153°09'1 3.0
2017-Nov-10 11:00S 27°22' E 153°10'2 1.8
2017-Nov-10 09:38S 27°24' E 153°09'0 1.3
2017-Nov-10 09:30S 27°24' E 153°09'0 0.0
2017-Nov-09 13:00S 27°24' E 153°09'0 0.3
2017-Nov-09 11:39S 27°24' E 153°09'0 0.1
2017-Nov-09 11:30S 27°24' E 153°09'0 0.6
2017-Nov-09 10:51S 27°24' E 153°09'0 0.0
2017-Nov-09 10:30S 27°24' E 153°09'0 0.0
2017-Nov-09 09:41S 27°24' E 153°09'2 0.3
2017-Nov-09 03:01S 27°22' E 153°10'0 4.8
2017-Nov-09 03:00S 27°22' E 153°10'  
Track history (hours):
 
Tides and Currents Weather Stations Pressure Air Temp Water Temp Dewpoint Dewpoint Depression Visibility Wind Speed Wind Dir Waves Ship Positions

Colmslie

Last reported at 2017-Nov-18 21:25 UTC. Time now 2017-Nov-18 21:52 UTC.
Position S 27°22' E 153°10'.

Length 22 m; draft 5.4 m.

Type: Tug. MMSI: 503194500.

Date/timePositionNaut miles runAvg speedWind from/ knotsBaromVisibWave heightAir tempDewpointWater temp
2017-Nov-18 21:25S 27°22' E 153°10'1 1.8
2017-Nov-18 20:56S 27°23' E 153°09'0 0.2
2017-Nov-18 19:02S 27°23' E 153°10'0 0.0
2017-Nov-18 18:49S 27°23' E 153°10'0 0.9
2017-Nov-18 18:30S 27°23' E 153°10'1 2.1
2017-Nov-18 18:00S 27°22' E 153°11'0 0.0
2017-Nov-18 16:34S 27°22' E 153°11'0 0.0
2017-Nov-18 16:28S 27°22' E 153°11'0 0.0
2017-Nov-18 15:49S 27°22' E 153°11'0 0.0
2017-Nov-18 15:29S 27°22' E 153°11'0 0.9
2017-Nov-18 15:00S 27°22' E 153°10'0 0.2
2017-Nov-18 14:19S 27°22' E 153°10'1 3.0
2017-Nov-18 14:00S 27°23' E 153°10'0 0.0
2017-Nov-18 13:30S 27°23' E 153°10'2 3.0
2017-Nov-18 12:56S 27°22' E 153°11'2 4.8
2017-Nov-18 12:30S 27°23' E 153°09'0 0.0
2017-Nov-18 07:08S 27°24' E 153°09'1 6.7
2017-Nov-18 06:59S 27°24' E 153°09'2 0.1
2017-Nov-17 18:48S 27°23' E 153°10'0 0.0
2017-Nov-17 18:27S 27°23' E 153°10'1 0.2
2017-Nov-17 14:20S 27°22' E 153°10'0 0.6
2017-Nov-17 14:00S 27°22' E 153°10'2 0.1
2017-Nov-16 15:02S 27°24' E 153°09'0 4.6
2017-Nov-16 15:00S 27°24' E 153°09'0 0.0
2017-Nov-16 11:14S 27°24' E 153°09'3 6.5
2017-Nov-16 10:50S 27°26' E 153°07'1 1.3
2017-Nov-16 09:45S 27°27' E 153°06'  
2017-Nov-12 13:55S 27°23' E 153°09'1 0.0
2017-Nov-11 20:14S 27°23' E 153°10'0 1.4
2017-Nov-11 19:56S 27°22' E 153°10'0 0.2
2017-Nov-11 18:43S 27°22' E 153°10'0 0.0
2017-Nov-11 18:22S 27°22' E 153°10'1 1.7
2017-Nov-11 18:00S 27°23' E 153°10'0 0.0
2017-Nov-11 16:51S 27°23' E 153°10'1 3.3
2017-Nov-11 16:30S 27°22' E 153°10'0 0.4
2017-Nov-11 15:58S 27°22' E 153°11'0 0.0
2017-Nov-11 15:27S 27°22' E 153°11'0 0.0
2017-Nov-11 15:00S 27°22' E 153°11'0 0.0
2017-Nov-11 14:30S 27°22' E 153°11'1 2.3
2017-Nov-11 14:00S 27°23' E 153°10'1 0.2
2017-Nov-11 10:58S 27°22' E 153°10'1 0.3
2017-Nov-11 07:25S 27°23' E 153°09'2 0.1
2017-Nov-10 18:16S 27°22' E 153°11'1 1.9
2017-Nov-10 17:55S 27°22' E 153°10'0 0.0
2017-Nov-10 17:30S 27°22' E 153°10'1 1.1
2017-Nov-10 16:59S 27°23' E 153°10'1 1.4
2017-Nov-10 16:30S 27°22' E 153°10'0 0.3
2017-Nov-10 15:53S 27°22' E 153°10'0 0.0
2017-Nov-10 15:29S 27°22' E 153°10'0 0.0
2017-Nov-10 15:00S 27°22' E 153°10'2 4.7
2017-Nov-10 14:30S 27°24' E 153°09'0 0.1
2017-Nov-10 13:46S 27°24' E 153°09'2 1.6
2017-Nov-10 12:32S 27°23' E 153°10'0 0.2
2017-Nov-10 12:29S 27°23' E 153°10'0 0.4
2017-Nov-10 11:48S 27°23' E 153°10'0 0.9
2017-Nov-10 11:28S 27°23' E 153°09'1 3.0
2017-Nov-10 11:00S 27°22' E 153°10'2 1.8
2017-Nov-10 09:38S 27°24' E 153°09'0 1.3
2017-Nov-10 09:30S 27°24' E 153°09'0 0.0
2017-Nov-09 13:00S 27°24' E 153°09'0 0.3
2017-Nov-09 11:39S 27°24' E 153°09'0 0.1
2017-Nov-09 11:30S 27°24' E 153°09'0 0.6
2017-Nov-09 10:51S 27°24' E 153°09'0 0.0
2017-Nov-09 10:30S 27°24' E 153°09'0 0.0
2017-Nov-09 09:41S 27°24' E 153°09'2 0.3
2017-Nov-09 03:01S 27°22' E 153°10'0 4.8
2017-Nov-09 03:00S 27°22' E 153°10'  

Dump ship's entire track history